sensor_id;sensor_type;location;lat;lon;timestamp;P1;durP1;ratioP1;P2;durP2;ratioP2
16673;SDS011;8450;52.654;10.326;2022-11-13T07:40:03;23.00;;;15.67;;
16673;SDS011;8450;52.654;10.326;2022-11-13T07:42:55;25.27;;;17.57;;
16673;SDS011;8450;52.654;10.326;2022-11-13T07:45:42;22.97;;;16.27;;
16673;SDS011;8450;52.654;10.326;2022-11-13T07:48:26;21.90;;;15.23;;
16673;SDS011;8450;52.654;10.326;2022-11-13T07:51:11;22.27;;;15.87;;
16673;SDS011;8450;52.654;10.326;2022-11-13T07:53:56;24.37;;;15.03;;
16673;SDS011;8450;52.654;10.326;2022-11-13T07:56:40;24.47;;;15.77;;
16673;SDS011;8450;52.654;10.326;2022-11-13T07:59:24;19.40;;;13.63;;
16673;SDS011;8450;52.654;10.326;2022-11-13T08:02:10;20.77;;;13.83;;
16673;SDS011;8450;52.654;10.326;2022-11-13T08:04:57;19.27;;;13.47;;
16673;SDS011;8450;52.654;10.326;2022-11-13T08:07:41;19.13;;;13.90;;
16673;SDS011;8450;52.654;10.326;2022-11-13T08:10:25;21.33;;;13.40;;
16673;SDS011;8450;52.654;10.326;2022-11-13T08:13:09;23.60;;;15.03;;
16673;SDS011;8450;52.654;10.326;2022-11-13T08:15:53;18.80;;;12.97;;
16673;SDS011;8450;52.654;10.326;2022-11-13T08:18:41;17.63;;;12.93;;
16673;SDS011;8450;52.654;10.326;2022-11-13T08:21:25;15.80;;;12.30;;
16673;SDS011;8450;52.654;10.326;2022-11-13T08:24:09;19.37;;;12.97;;
16673;SDS011;8450;52.654;10.326;2022-11-13T08:26:53;18.67;;;13.03;;
16673;SDS011;8450;52.654;10.326;2022-11-13T08:29:37;22.17;;;13.83;;
16673;SDS011;8450;52.654;10.326;2022-11-13T08:32:21;18.30;;;13.27;;
16673;SDS011;8450;52.654;10.326;2022-11-13T08:35:05;17.17;;;13.00;;
16673;SDS011;8450;52.654;10.326;2022-11-13T08:37:50;20.37;;;14.00;;
16673;SDS011;8450;52.654;10.326;2022-11-13T08:40:34;17.43;;;13.07;;
16673;SDS011;8450;52.654;10.326;2022-11-13T08:43:18;15.47;;;11.90;;
16673;SDS011;8450;52.654;10.326;2022-11-13T08:46:03;15.03;;;11.27;;
16673;SDS011;8450;52.654;10.326;2022-11-13T08:48:47;19.47;;;13.43;;
16673;SDS011;8450;52.654;10.326;2022-11-13T08:51:31;14.87;;;10.83;;
16673;SDS011;8450;52.654;10.326;2022-11-13T08:54:15;19.37;;;12.93;;
16673;SDS011;8450;52.654;10.326;2022-11-13T08:57:00;16.73;;;13.03;;
16673;SDS011;8450;52.654;10.326;2022-11-13T08:59:44;18.50;;;12.23;;
16673;SDS011;8450;52.654;10.326;2022-11-13T09:02:28;16.67;;;12.03;;
16673;SDS011;8450;52.654;10.326;2022-11-13T09:05:12;15.03;;;11.50;;
16673;SDS011;8450;52.654;10.326;2022-11-13T09:07:57;18.37;;;12.50;;
16673;SDS011;8450;52.654;10.326;2022-11-13T09:10:43;15.23;;;11.57;;
16673;SDS011;8450;52.654;10.326;2022-11-13T09:13:27;16.53;;;11.43;;
16673;SDS011;8450;52.654;10.326;2022-11-13T09:16:11;15.97;;;11.20;;
16673;SDS011;8450;52.654;10.326;2022-11-13T09:18:55;15.10;;;11.53;;
16673;SDS011;8450;52.654;10.326;2022-11-13T09:21:40;17.60;;;11.73;;
16673;SDS011;8450;52.654;10.326;2022-11-13T09:24:24;14.53;;;10.83;;
16673;SDS011;8450;52.654;10.326;2022-11-13T09:27:08;14.77;;;10.43;;
16673;SDS011;8450;52.654;10.326;2022-11-13T09:29:51;18.37;;;12.23;;
16673;SDS011;8450;52.654;10.326;2022-11-13T09:32:35;16.80;;;11.60;;
16673;SDS011;8450;52.654;10.326;2022-11-13T09:35:20;16.60;;;12.30;;
16673;SDS011;8450;52.654;10.326;2022-11-13T09:38:16;17.80;;;13.00;;
16673;SDS011;8450;52.654;10.326;2022-11-13T09:41:02;17.73;;;11.80;;
16673;SDS011;8450;52.654;10.326;2022-11-13T09:44:04;13.93;;;10.53;;
16673;SDS011;8450;52.654;10.326;2022-11-13T09:46:58;11.23;;;8.83;;
16673;SDS011;8450;52.654;10.326;2022-11-13T09:49:51;13.53;;;9.53;;
16673;SDS011;8450;52.654;10.326;2022-11-13T09:52:40;13.47;;;10.83;;
16673;SDS011;8450;52.654;10.326;2022-11-13T09:55:33;12.83;;;10.07;;
16673;SDS011;8450;52.654;10.326;2022-11-13T09:58:39;13.73;;;10.30;;
16673;SDS011;8450;52.654;10.326;2022-11-13T10:01:40;11.67;;;9.13;;
16673;SDS011;8450;52.654;10.326;2022-11-13T10:04:46;12.67;;;9.47;;
16673;SDS011;8450;52.654;10.326;2022-11-13T10:07:36;13.70;;;10.03;;
16673;SDS011;8450;52.654;10.326;2022-11-13T10:10:46;12.07;;;9.80;;
16673;SDS011;8450;52.654;10.326;2022-11-13T10:13:44;12.57;;;10.23;;
16673;SDS011;8450;52.654;10.326;2022-11-13T10:16:33;12.20;;;9.33;;
16673;SDS011;8450;52.654;10.326;2022-11-13T10:22:37;10.33;;;8.07;;
16673;SDS011;8450;52.654;10.326;2022-11-13T10:25:32;9.90;;;8.47;;
16673;SDS011;8450;52.654;10.326;2022-11-13T10:28:20;11.40;;;8.77;;
16673;SDS011;8450;52.654;10.326;2022-11-13T10:31:08;11.10;;;8.77;;
16673;SDS011;8450;52.654;10.326;2022-11-13T10:33:54;10.37;;;8.93;;
16673;SDS011;8450;52.654;10.326;2022-11-13T10:40:01;14.40;;;10.40;;
16673;SDS011;8450;52.654;10.326;2022-11-13T10:42:46;10.90;;;9.00;;
16673;SDS011;8450;52.654;10.326;2022-11-13T10:45:30;11.10;;;9.47;;
16673;SDS011;8450;52.654;10.326;2022-11-13T10:48:18;14.93;;;10.70;;
16673;SDS011;8450;52.654;10.326;2022-11-13T10:54:27;12.60;;;10.03;;
16673;SDS011;8450;52.654;10.326;2022-11-13T10:57:29;12.60;;;9.73;;
16673;SDS011;8450;52.654;10.326;2022-11-13T11:00:23;12.33;;;9.73;;
16673;SDS011;8450;52.654;10.326;2022-11-13T11:06:02;11.43;;;8.83;;
16673;SDS011;8450;52.654;10.326;2022-11-13T11:08:47;16.50;;;12.13;;
16673;SDS011;8450;52.654;10.326;2022-11-13T11:11:31;12.20;;;9.83;;
16673;SDS011;8450;52.654;10.326;2022-11-13T11:14:36;14.97;;;10.20;;
16673;SDS011;8450;52.654;10.326;2022-11-13T11:23:21;12.80;;;10.63;;
16673;SDS011;8450;52.654;10.326;2022-11-13T11:26:23;11.63;;;9.70;;
16673;SDS011;8450;52.654;10.326;2022-11-13T11:29:16;14.27;;;11.10;;
16673;SDS011;8450;52.654;10.326;2022-11-13T11:35:24;14.57;;;10.57;;
16673;SDS011;8450;52.654;10.326;2022-11-13T11:38:49;13.30;;;11.00;;
16673;SDS011;8450;52.654;10.326;2022-11-13T11:41:41;12.10;;;10.40;;
16673;SDS011;8450;52.654;10.326;2022-11-13T11:45:09;12.03;;;9.60;;
16673;SDS011;8450;52.654;10.326;2022-11-13T11:47:59;12.97;;;10.17;;
16673;SDS011;8450;52.654;10.326;2022-11-13T11:56:56;13.80;;;12.23;;
16673;SDS011;8450;52.654;10.326;2022-11-13T12:05:41;13.10;;;10.73;;
16673;SDS011;8450;52.654;10.326;2022-11-13T12:11:32;14.03;;;12.50;;
16673;SDS011;8450;52.654;10.326;2022-11-13T12:26:22;17.53;;;13.17;;
16673;SDS011;8450;52.654;10.326;2022-11-13T12:29:20;16.97;;;12.97;;
16673;SDS011;8450;52.654;10.326;2022-11-13T12:35:17;13.17;;;10.67;;
16673;SDS011;8450;52.654;10.326;2022-11-13T12:40:55;16.20;;;12.37;;
16673;SDS011;8450;52.654;10.326;2022-11-13T12:47:13;16.90;;;12.27;;
16673;SDS011;8450;52.654;10.326;2022-11-13T12:50:39;16.03;;;12.20;;
16673;SDS011;8450;52.654;10.326;2022-11-13T12:53:13;15.13;;;12.07;;
16673;SDS011;8450;52.654;10.326;2022-11-13T12:56:12;16.87;;;13.27;;
16673;SDS011;8450;52.654;10.326;2022-11-13T12:59:23;16.80;;;12.77;;
16673;SDS011;8450;52.654;10.326;2022-11-13T13:04:58;18.53;;;13.67;;
16673;SDS011;8450;52.654;10.326;2022-11-13T13:14:33;18.00;;;14.53;;
16673;SDS011;8450;52.654;10.326;2022-11-13T13:17:32;21.50;;;14.43;;
16673;SDS011;8450;52.654;10.326;2022-11-13T13:23:03;19.90;;;14.63;;
16673;SDS011;8450;52.654;10.326;2022-11-13T13:25:48;19.03;;;14.43;;
16673;SDS011;8450;52.654;10.326;2022-11-13T13:28:32;21.43;;;15.50;;
16673;SDS011;8450;52.654;10.326;2022-11-13T13:31:27;18.77;;;14.90;;
